createdAt,value
2018-03-26T00:00:20.232Z,19.42
2018-03-26T00:02:47.744Z,22.67
2018-03-26T00:05:15.370Z,20.10
2018-03-26T00:07:43.866Z,19.75
2018-03-26T00:10:11.384Z,20.25
2018-03-26T00:12:39.770Z,22.30
2018-03-26T00:15:07.291Z,21.75
2018-03-26T00:17:35.001Z,20.50
2018-03-26T00:20:02.528Z,19.10
2018-03-26T00:22:30.035Z,20.70
2018-03-26T00:24:57.569Z,20.42
2018-03-26T00:27:25.997Z,19.70
2018-03-26T00:29:53.557Z,20.37
2018-03-26T00:32:21.078Z,22.83
2018-03-26T00:34:48.618Z,16.95
2018-03-26T00:37:16.161Z,20.02
2018-03-26T00:39:43.681Z,19.23
2018-03-26T00:42:11.645Z,20.10
2018-03-26T00:44:39.164Z,20.83
2018-03-26T00:47:06.966Z,18.80
2018-03-26T00:49:34.506Z,20.48
2018-03-26T00:52:02.018Z,21.33
2018-03-26T00:54:29.719Z,21.10
2018-03-26T00:56:57.274Z,21.10
2018-03-26T00:59:24.758Z,24.10
2018-03-26T01:01:52.297Z,20.15
2018-03-26T01:04:19.809Z,21.65
2018-03-26T01:06:47.358Z,20.75
2018-03-26T01:09:14.866Z,23.00
2018-03-26T01:11:42.381Z,21.95
2018-03-26T01:14:09.922Z,22.87
2018-03-26T01:16:37.444Z,19.37
2018-03-26T01:19:05.009Z,22.25
2018-03-26T01:21:32.693Z,21.27
2018-03-26T01:24:00.241Z,20.30
2018-03-26T01:26:27.796Z,20.55
2018-03-26T01:28:55.320Z,21.80
2018-03-26T01:31:23.101Z,23.58
2018-03-26T01:33:50.628Z,21.95
2018-03-26T01:36:18.138Z,22.80
2018-03-26T01:38:45.680Z,20.00
2018-03-26T01:41:13.193Z,21.45
2018-03-26T01:43:40.742Z,23.42
2018-03-26T01:46:08.266Z,21.02
2018-03-26T01:48:35.788Z,20.52
2018-03-26T01:51:03.338Z,22.30
2018-03-26T01:53:30.850Z,20.73
2018-03-26T01:55:58.597Z,21.17
2018-03-26T01:58:26.114Z,22.20
2018-03-26T02:00:53.624Z,21.75
2018-03-26T02:03:21.166Z,22.70
2018-03-26T02:05:48.678Z,21.37
2018-03-26T02:08:16.405Z,21.05
2018-03-26T02:10:43.914Z,20.77
2018-03-26T02:13:11.427Z,22.80
2018-03-26T02:15:38.980Z,20.73
2018-03-26T02:18:06.505Z,20.75
2018-03-26T02:20:34.299Z,21.58
2018-03-26T02:23:01.809Z,22.25
2018-03-26T02:25:29.329Z,23.45
2018-03-26T02:27:56.866Z,21.92
2018-03-26T02:30:24.378Z,22.27
2018-03-26T02:32:51.942Z,20.88
2018-03-26T02:35:19.457Z,19.12
2018-03-26T02:37:46.969Z,23.20
2018-03-26T02:40:14.508Z,21.20
2018-03-26T02:42:42.017Z,20.02
2018-03-26T02:45:09.691Z,20.12
2018-03-26T02:47:37.231Z,21.85
2018-03-26T02:50:04.742Z,21.35
2018-03-26T02:52:32.285Z,20.35
2018-03-26T02:54:59.802Z,21.37
2018-03-26T02:57:27.583Z,23.17
2018-03-26T02:59:55.106Z,18.73
2018-03-26T03:02:22.620Z,18.15
2018-03-26T03:04:50.162Z,19.87
2018-03-26T03:07:17.682Z,20.30
2018-03-26T03:09:45.237Z,20.33
2018-03-26T03:12:12.746Z,19.75
2018-03-26T03:14:40.720Z,21.55
2018-03-26T03:17:08.261Z,21.52
2018-03-26T03:19:35.787Z,19.08
2018-03-26T03:22:03.514Z,20.40
2018-03-26T03:24:31.033Z,20.60
2018-03-26T03:26:58.545Z,20.48
2018-03-26T03:29:26.086Z,20.30
2018-03-26T03:31:53.606Z,18.50
2018-03-26T03:34:21.273Z,21.55
2018-03-26T03:36:48.792Z,21.73
2018-03-26T03:39:16.314Z,19.95
2018-03-26T03:41:43.860Z,19.87
2018-03-26T03:44:11.373Z,20.33
2018-03-26T03:46:38.925Z,21.60
2018-03-26T03:49:06.456Z,18.80
2018-03-26T03:51:33.985Z,22.75
2018-03-26T03:54:01.523Z,21.95
2018-03-26T03:56:29.035Z,18.67
2018-03-26T03:58:56.785Z,22.10
2018-03-26T04:01:24.294Z,20.00
2018-03-26T04:03:51.804Z,19.85
2018-03-26T04:06:19.341Z,19.90
2018-03-26T04:08:46.866Z,20.90
2018-03-26T04:11:14.670Z,21.58
2018-03-26T04:13:42.181Z,20.45
2018-03-26T04:16:09.702Z,21.00
2018-03-26T04:18:38.005Z,20.27
2018-03-26T04:21:05.524Z,22.45
2018-03-26T04:23:33.195Z,19.85
2018-03-26T04:26:00.727Z,22.70
2018-03-26T04:28:28.242Z,21.73
2018-03-26T04:30:55.782Z,20.62
2018-03-26T04:33:23.298Z,21.73
2018-03-26T04:35:50.949Z,23.20
2018-03-26T04:38:18.461Z,21.08
2018-03-26T04:40:45.992Z,22.70
2018-03-26T04:43:13.528Z,22.45
2018-03-26T04:45:41.039Z,20.62
2018-03-26T04:48:08.610Z,20.40
2018-03-26T04:50:36.125Z,21.48
2018-03-26T04:53:03.637Z,22.58
2018-03-26T04:55:31.174Z,21.75
2018-03-26T04:57:58.682Z,22.48
2018-03-26T05:00:26.485Z,20.12
2018-03-26T05:02:53.993Z,21.85
2018-03-26T05:05:21.518Z,20.55
2018-03-26T05:07:49.056Z,20.92
2018-03-26T05:10:16.619Z,23.70
2018-03-26T05:12:44.169Z,23.87
2018-03-26T05:15:11.701Z,23.62
2018-03-26T05:17:39.222Z,22.58
2018-03-26T05:20:06.769Z,25.83
2018-03-26T05:22:34.285Z,22.05
2018-03-26T05:25:01.956Z,24.55
2018-03-26T05:27:29.489Z,19.58
2018-03-26T05:29:57.003Z,21.52
2018-03-26T05:32:24.729Z,22.55
2018-03-26T05:34:52.245Z,25.20
2018-03-26T05:37:19.797Z,25.05
2018-03-26T05:39:47.306Z,24.17
2018-03-26T05:42:14.853Z,25.42
2018-03-26T05:44:42.459Z,23.40
2018-03-26T05:47:09.974Z,28.75
2018-03-26T05:49:37.604Z,26.15
2018-03-26T05:52:05.173Z,24.98
2018-03-26T05:54:32.647Z,26.98
2018-03-26T05:57:00.190Z,27.17
2018-03-26T05:59:27.701Z,27.45
2018-03-26T06:01:55.683Z,30.17
2018-03-26T06:04:23.193Z,29.98
2018-03-26T06:06:50.714Z,29.60
2018-03-26T06:09:18.258Z,31.70
2018-03-26T06:11:45.765Z,29.27
2018-03-26T06:14:13.318Z,30.75
2018-03-26T06:16:52.617Z,32.50
2018-03-26T06:19:20.681Z,34.58
2018-03-26T06:21:48.649Z,32.78
2018-03-26T06:24:16.156Z,32.25
2018-03-26T06:26:43.696Z,31.50
2018-03-26T06:29:11.210Z,32.58
2018-03-26T06:31:38.859Z,29.77
2018-03-26T06:34:06.393Z,32.17
2018-03-26T06:36:39.617Z,33.33
2018-03-26T06:39:07.136Z,34.53
2018-03-26T06:41:34.657Z,33.78
2018-03-26T06:44:02.273Z,33.08
2018-03-26T06:46:29.748Z,33.33
2018-03-26T06:48:57.517Z,33.63
2018-03-26T06:51:25.030Z,37.63
2018-03-26T06:53:52.552Z,33.25
2018-03-26T06:56:20.089Z,35.70
2018-03-26T06:58:47.610Z,35.33
2018-03-26T07:01:15.297Z,35.42
2018-03-26T07:03:42.813Z,33.83
2018-03-26T07:06:10.323Z,33.03
2018-03-26T07:08:37.857Z,35.50
2018-03-26T07:11:05.467Z,35.65
2018-03-26T07:13:33.027Z,34.30
2018-03-26T07:16:00.538Z,34.75
2018-03-26T07:18:28.059Z,34.33
2018-03-26T07:20:55.682Z,34.42
2018-03-26T07:23:23.174Z,35.88
2018-03-26T07:25:50.733Z,39.13
2018-03-26T07:28:18.261Z,39.97
2018-03-26T07:30:45.782Z,38.08
2018-03-26T07:33:13.336Z,34.00
2018-03-26T07:35:40.854Z,36.78
2018-03-26T07:38:08.805Z,34.63
2018-03-26T07:40:36.325Z,35.55
2018-03-26T07:43:03.845Z,34.30
2018-03-26T07:45:31.414Z,34.78
2018-03-26T07:47:58.930Z,36.35
2018-03-26T07:50:26.474Z,32.50
2018-03-26T07:52:53.987Z,33.08
2018-03-26T07:55:21.509Z,36.03
2018-03-26T07:57:49.077Z,37.17
2018-03-26T08:00:16.652Z,35.75
2018-03-26T08:02:44.404Z,34.42
2018-03-26T08:05:11.941Z,37.28
2018-03-26T08:07:39.457Z,36.63
2018-03-26T08:10:07.186Z,34.58
2018-03-26T08:12:34.727Z,37.63
2018-03-26T08:15:02.314Z,35.47
2018-03-26T08:17:29.813Z,33.78
2018-03-26T08:19:57.331Z,34.45
2018-03-26T08:22:25.813Z,37.05
2018-03-26T08:24:53.889Z,34.10
2018-03-26T08:27:22.161Z,32.75
2018-03-26T08:29:49.706Z,33.00
2018-03-26T08:32:18.197Z,34.85
2018-03-26T08:34:46.171Z,33.58
2018-03-26T08:37:13.702Z,37.05
2018-03-26T08:39:41.579Z,35.42
2018-03-26T08:42:09.155Z,34.95
2018-03-26T08:44:36.719Z,34.40
2018-03-26T08:47:04.261Z,34.35
2018-03-26T08:49:31.783Z,35.55
2018-03-26T08:51:59.374Z,37.15
2018-03-26T08:54:27.873Z,36.47
2018-03-26T08:56:55.453Z,39.38
2018-03-26T08:59:23.008Z,34.88
2018-03-26T09:01:50.756Z,34.67
2018-03-26T09:04:19.135Z,36.80
2018-03-26T09:06:46.674Z,36.95
2018-03-26T09:09:14.202Z,36.38
2018-03-26T09:11:42.517Z,35.33
2018-03-26T09:14:11.035Z,36.50
2018-03-26T09:16:38.570Z,33.25
2018-03-26T09:19:06.190Z,36.88
2018-03-26T09:21:33.893Z,35.10
2018-03-26T09:24:01.417Z,33.95
2018-03-26T09:26:29.319Z,35.63
2018-03-26T09:28:56.914Z,34.92
2018-03-26T09:31:24.540Z,34.88
2018-03-26T09:33:52.203Z,34.72
2018-03-26T09:36:19.797Z,35.25
2018-03-26T09:38:48.652Z,36.97
2018-03-26T09:41:16.521Z,37.08
2018-03-26T09:43:44.389Z,35.35
2018-03-26T09:46:12.265Z,33.78
2018-03-26T09:48:40.732Z,35.70
2018-03-26T09:51:08.599Z,37.25
2018-03-26T09:53:36.669Z,35.88
2018-03-26T09:56:04.433Z,36.53
2018-03-26T09:58:32.207Z,35.13
2018-03-26T10:01:03.135Z,35.17
2018-03-26T10:03:30.921Z,34.78
2018-03-26T10:05:58.450Z,35.75
2018-03-26T10:08:26.228Z,36.33
2018-03-26T10:10:53.993Z,35.25
2018-03-26T10:13:21.854Z,38.25
2018-03-26T10:15:49.412Z,36.17
2018-03-26T10:18:16.936Z,36.40
2018-03-26T10:20:44.766Z,38.13
2018-03-26T10:23:12.312Z,37.90
2018-03-26T10:25:39.943Z,37.17
2018-03-26T10:28:08.826Z,37.42
2018-03-26T10:30:36.351Z,37.13
2018-03-26T10:33:03.924Z,39.67
2018-03-26T10:35:31.741Z,37.47
2018-03-26T10:37:59.298Z,37.58
2018-03-26T10:40:26.948Z,36.80
2018-03-26T10:42:54.597Z,37.90
2018-03-26T10:45:22.151Z,37.33
2018-03-26T10:47:49.713Z,37.35
2018-03-26T10:50:17.329Z,39.30
2018-03-26T10:52:45.262Z,37.20
2018-03-26T10:55:13.104Z,37.67
2018-03-26T10:57:40.672Z,37.53
2018-03-26T11:00:08.198Z,38.85
2018-03-26T11:02:36.115Z,36.20
2018-03-26T11:05:03.734Z,40.60
2018-03-26T11:07:31.625Z,39.08
2018-03-26T11:09:59.302Z,40.22
2018-03-26T11:12:27.255Z,37.05
2018-03-26T11:14:55.142Z,38.97
2018-03-26T11:17:23.209Z,35.85
2018-03-26T11:19:51.179Z,36.65
2018-03-26T11:22:19.319Z,34.65
2018-03-26T11:24:47.629Z,35.42
2018-03-26T11:27:23.055Z,35.90
2018-03-26T11:29:51.349Z,34.63
2018-03-26T11:32:19.254Z,31.70
2018-03-26T11:34:46.832Z,35.60
2018-03-26T11:37:14.642Z,36.03
2018-03-26T11:39:42.562Z,37.95
2018-03-26T11:42:10.892Z,36.03
2018-03-26T11:44:38.853Z,35.43
2018-03-26T11:47:07.234Z,35.13
2018-03-26T11:49:35.213Z,35.80
2018-03-26T11:52:03.479Z,35.73
2018-03-26T11:54:32.338Z,36.30
2018-03-26T11:57:01.059Z,35.13
2018-03-26T11:59:29.154Z,34.03
2018-03-26T12:01:57.731Z,38.47
2018-03-26T12:04:25.664Z,34.80
2018-03-26T12:06:53.947Z,37.90
2018-03-26T12:09:21.820Z,36.13
2018-03-26T12:11:49.882Z,36.20
2018-03-26T12:14:17.864Z,31.67
2018-03-26T12:16:45.833Z,36.17
2018-03-26T12:19:14.154Z,35.87
2018-03-26T12:21:42.077Z,35.70
2018-03-26T12:24:21.922Z,37.37
2018-03-26T12:26:50.016Z,31.77
2018-03-26T12:29:30.229Z,31.93
2018-03-26T12:31:58.262Z,31.40
2018-03-26T12:34:38.038Z,32.10
2018-03-26T12:37:06.752Z,30.97
2018-03-26T12:39:35.724Z,36.00
2018-03-26T12:42:04.780Z,33.93
2018-03-26T12:44:45.406Z,35.40
2018-03-26T12:47:13.792Z,36.20
2018-03-26T12:49:41.714Z,37.87
2018-03-26T12:52:23.342Z,34.07
2018-03-26T12:54:51.104Z,36.93
2018-03-26T12:57:31.005Z,36.00
2018-03-26T12:59:58.924Z,33.87
2018-03-26T13:02:28.292Z,36.87
2018-03-26T13:04:57.115Z,34.07
2018-03-26T13:07:24.994Z,35.67
2018-03-26T13:09:53.365Z,35.80
2018-03-26T13:12:21.838Z,39.47
2018-03-26T13:14:50.286Z,37.53
2018-03-26T13:17:18.185Z,34.63
2018-03-26T13:19:45.934Z,36.80
2018-03-26T13:22:15.388Z,35.07
2018-03-26T13:24:43.760Z,37.30
2018-03-26T13:27:11.599Z,34.53
2018-03-26T13:29:39.225Z,37.77
2018-03-26T13:32:07.175Z,38.20
2018-03-26T13:34:35.814Z,37.00
2018-03-26T13:37:03.781Z,40.60
2018-03-26T13:39:31.544Z,39.90
2018-03-26T13:41:59.540Z,37.97
2018-03-26T13:44:27.482Z,39.00
2018-03-26T13:46:55.555Z,38.95
2018-03-26T13:49:23.422Z,38.90
2018-03-26T13:51:51.287Z,37.63
2018-03-26T13:54:19.665Z,39.10
2018-03-26T13:56:48.863Z,41.00
2018-03-26T13:59:17.036Z,38.83
2018-03-26T14:01:44.659Z,37.85
2018-03-26T14:04:12.566Z,38.83
2018-03-26T14:06:41.005Z,45.65
2018-03-26T14:09:20.791Z,38.67
2018-03-26T14:12:00.272Z,39.03
2018-03-26T14:14:39.565Z,39.60
2018-03-26T14:17:19.617Z,38.33
2018-03-26T14:19:47.307Z,38.15
2018-03-26T14:22:15.131Z,35.55
2018-03-26T14:24:43.830Z,37.90
2018-03-26T14:27:11.609Z,39.22
2018-03-26T14:29:39.720Z,40.08
2018-03-26T14:32:07.431Z,38.67
2018-03-26T14:34:35.606Z,40.60
2018-03-26T14:37:03.258Z,36.55
2018-03-26T14:39:31.234Z,37.78
2018-03-26T14:41:59.203Z,38.97
2018-03-26T14:44:27.895Z,35.67
2018-03-26T14:46:57.003Z,35.63
2018-03-26T14:49:25.057Z,37.20
2018-03-26T14:51:53.038Z,35.28
2018-03-26T14:54:20.999Z,34.58
2018-03-26T14:56:49.085Z,35.67
2018-03-26T14:59:17.444Z,35.30
2018-03-26T15:01:45.412Z,35.75
2018-03-26T15:04:13.586Z,34.15
2018-03-26T15:06:41.458Z,33.22
2018-03-26T15:09:09.343Z,33.35
2018-03-26T15:11:37.596Z,34.28
2018-03-26T15:14:05.564Z,32.53
2018-03-26T15:16:33.637Z,32.22
2018-03-26T15:19:02.218Z,34.78
2018-03-26T15:21:30.047Z,33.92
2018-03-26T15:23:57.910Z,33.55
2018-03-26T15:26:25.614Z,32.55
2018-03-26T15:28:53.583Z,33.08
2018-03-26T15:31:21.655Z,33.60
2018-03-26T15:33:50.344Z,32.67
2018-03-26T15:36:18.898Z,31.77
2018-03-26T15:38:46.804Z,33.15
2018-03-26T15:41:15.206Z,33.80
2018-03-26T15:43:43.163Z,31.92
2018-03-26T15:46:11.823Z,32.05
2018-03-26T15:48:40.202Z,31.52
2018-03-26T15:51:08.723Z,31.48
2018-03-26T15:53:37.575Z,33.13
2018-03-26T15:56:05.468Z,33.40
2018-03-26T15:58:33.327Z,32.65
2018-03-26T16:01:01.462Z,34.05
2018-03-26T16:03:30.782Z,34.60
2018-03-26T16:05:58.658Z,31.70
2018-03-26T16:08:26.590Z,31.70
2018-03-26T16:10:54.687Z,34.22
2018-03-26T16:13:22.963Z,35.45
2018-03-26T16:15:50.829Z,35.13
2018-03-26T16:18:19.002Z,33.05
2018-03-26T16:20:47.289Z,32.40
2018-03-26T16:23:15.250Z,33.35
2018-03-26T16:25:43.652Z,30.40
2018-03-26T16:28:11.411Z,31.20
2018-03-26T16:30:39.155Z,33.22
2018-03-26T16:33:07.022Z,31.35
2018-03-26T16:35:34.952Z,31.50
2018-03-26T16:38:03.685Z,33.60
2018-03-26T16:40:31.544Z,29.63
2018-03-26T16:43:07.805Z,30.95
2018-03-26T16:45:35.674Z,31.70
2018-03-26T16:48:03.325Z,30.90
2018-03-26T16:50:31.815Z,32.75
2018-03-26T16:52:59.717Z,30.15
2018-03-26T16:55:27.856Z,31.02
2018-03-26T16:57:55.637Z,34.75
2018-03-26T17:00:23.998Z,32.03
2018-03-26T17:02:51.966Z,31.80
2018-03-26T17:05:19.781Z,31.20
2018-03-26T17:07:47.878Z,31.30
2018-03-26T17:10:16.361Z,32.63
2018-03-26T17:12:44.150Z,32.13
2018-03-26T17:15:11.917Z,28.62
2018-03-26T17:17:39.986Z,30.75
2018-03-26T17:20:10.201Z,34.15
2018-03-26T17:22:38.892Z,33.05
2018-03-26T17:25:06.964Z,31.83
2018-03-26T17:27:34.831Z,33.72
2018-03-26T17:30:03.209Z,32.67
2018-03-26T17:32:31.077Z,31.92
2018-03-26T17:34:58.841Z,34.53
2018-03-26T17:37:26.697Z,34.42
2018-03-26T17:39:54.573Z,34.10
2018-03-26T17:42:22.337Z,33.72
2018-03-26T17:44:50.203Z,34.15
2018-03-26T17:47:18.290Z,34.85
2018-03-26T17:49:46.139Z,33.40
2018-03-26T17:52:14.520Z,33.53
2018-03-26T17:54:42.718Z,36.05
2018-03-26T17:57:11.484Z,36.83
2018-03-26T17:59:40.168Z,37.65
2018-03-26T18:02:08.651Z,37.22
2018-03-26T18:04:37.540Z,36.22
2018-03-26T18:07:05.919Z,38.72
2018-03-26T18:09:35.171Z,42.15
2018-03-26T18:12:03.086Z,41.88
2018-03-26T18:14:30.951Z,47.97
2018-03-26T18:16:58.840Z,46.58
2018-03-26T18:19:26.684Z,44.38
2018-03-26T18:21:54.754Z,36.72
2018-03-26T18:24:22.622Z,31.20
2018-03-26T18:26:50.459Z,33.90
2018-03-26T18:29:18.867Z,33.35
2018-03-26T18:31:47.655Z,33.83
2018-03-26T18:34:15.521Z,33.88
2018-03-26T18:36:44.104Z,36.40
2018-03-26T18:39:12.382Z,32.35
2018-03-26T18:41:40.557Z,31.27
2018-03-26T18:44:08.422Z,30.42
2018-03-26T18:46:36.714Z,34.80
2018-03-26T18:49:04.669Z,34.50
2018-03-26T18:51:33.124Z,33.65
2018-03-26T18:54:01.721Z,37.10
2018-03-26T18:56:29.699Z,36.63
2018-03-26T18:58:57.465Z,39.55
2018-03-26T19:01:26.273Z,38.60
2018-03-26T19:03:54.324Z,37.78
2018-03-26T19:06:22.252Z,35.33
2018-03-26T19:08:50.364Z,34.83
2018-03-26T19:11:18.288Z,34.80
2018-03-26T19:13:46.198Z,33.50
2018-03-26T19:16:14.270Z,34.25
2018-03-26T19:18:42.140Z,35.53
2018-03-26T19:21:10.211Z,37.35
2018-03-26T19:23:38.195Z,36.00
2018-03-26T19:26:06.251Z,33.92
2018-03-26T19:28:34.116Z,33.70
2018-03-26T19:31:02.598Z,34.55
2018-03-26T19:33:30.464Z,35.03
2018-03-26T19:35:59.250Z,36.05
2018-03-26T19:38:28.040Z,36.65
2018-03-26T19:40:56.826Z,35.38
2018-03-26T19:43:25.206Z,35.13
2018-03-26T19:45:53.421Z,35.83
2018-03-26T19:48:21.655Z,36.88
2018-03-26T19:50:49.523Z,38.80
2018-03-26T19:53:17.388Z,36.58
2018-03-26T19:55:45.357Z,34.85
2018-03-26T19:58:13.270Z,33.38
2018-03-26T20:00:42.012Z,34.55
2018-03-26T20:03:09.981Z,31.70
2018-03-26T20:05:40.613Z,36.95
2018-03-26T20:08:08.600Z,34.25
2018-03-26T20:10:36.758Z,33.22
2018-03-26T20:13:05.235Z,34.30
2018-03-26T20:15:34.129Z,35.72
2018-03-26T20:18:01.992Z,34.45
2018-03-26T20:20:30.269Z,34.25
2018-03-26T20:22:58.238Z,33.20
2018-03-26T20:25:27.389Z,34.50
2018-03-26T20:27:55.909Z,34.55
2018-03-26T20:30:25.012Z,35.17
2018-03-26T20:32:52.981Z,34.83
2018-03-26T20:35:20.852Z,32.58
2018-03-26T20:37:49.021Z,36.35
2018-03-26T20:40:17.092Z,38.55
2018-03-26T20:42:44.930Z,39.80
2018-03-26T20:45:13.851Z,36.30
2018-03-26T20:47:41.694Z,33.45
2018-03-26T20:50:09.787Z,40.35
2018-03-26T20:52:37.655Z,37.90
2018-03-26T20:55:05.641Z,40.60
2018-03-26T20:57:33.432Z,38.85
2018-03-26T21:00:01.256Z,40.22
2018-03-26T21:02:29.426Z,37.00
2018-03-26T21:04:57.187Z,40.28
2018-03-26T21:07:25.365Z,41.37
2018-03-26T21:09:53.334Z,38.13
2018-03-26T21:12:22.082Z,39.28
2018-03-26T21:14:50.194Z,39.40
2018-03-26T21:17:18.061Z,40.60
2018-03-26T21:19:45.926Z,40.60
2018-03-26T21:22:13.848Z,40.88
2018-03-26T21:24:41.761Z,38.35
2018-03-26T21:27:09.887Z,38.17
2018-03-26T21:29:38.419Z,37.28
2018-03-26T21:32:06.396Z,38.97
2018-03-26T21:34:34.286Z,38.35
2018-03-26T21:37:02.242Z,39.70
2018-03-26T21:39:30.601Z,38.75
2018-03-26T21:41:58.382Z,41.58
2018-03-26T21:44:26.128Z,41.10
2018-03-26T21:46:54.008Z,39.08
2018-03-26T21:49:21.860Z,39.97
2018-03-26T21:51:50.649Z,40.25
2018-03-26T21:54:18.416Z,40.80
2018-03-26T21:56:46.381Z,40.10
2018-03-26T21:59:14.356Z,43.13
2018-03-26T22:01:42.120Z,41.03
2018-03-26T22:04:10.596Z,40.42
2018-03-26T22:06:38.463Z,43.22
2018-03-26T22:09:06.329Z,41.45
2018-03-26T22:11:33.964Z,41.53
2018-03-26T22:14:01.602Z,39.72
2018-03-26T22:16:29.181Z,41.47
2018-03-26T22:18:57.367Z,42.05
2018-03-26T22:21:25.132Z,42.25
2018-03-26T22:23:53.693Z,42.03
2018-03-26T22:26:21.497Z,41.78
2018-03-26T22:28:49.237Z,45.40
2018-03-26T22:31:16.809Z,43.55
2018-03-26T22:33:44.377Z,42.50
2018-03-26T22:36:11.920Z,45.17
2018-03-26T22:38:40.234Z,46.28
2018-03-26T22:41:08.074Z,45.20
2018-03-26T22:43:35.616Z,45.92
2018-03-26T22:46:03.138Z,46.90
2018-03-26T22:48:30.693Z,47.42
2018-03-26T22:50:58.325Z,49.30
2018-03-26T22:53:26.186Z,49.90
2018-03-26T22:55:53.755Z,47.55
2018-03-26T22:58:21.305Z,50.88
2018-03-26T23:00:48.849Z,46.53
2018-03-26T23:03:16.379Z,48.83
2018-03-26T23:05:44.290Z,49.00
2018-03-26T23:08:11.825Z,47.88
2018-03-26T23:10:39.338Z,49.90
2018-03-26T23:13:07.046Z,50.28
2018-03-26T23:15:34.569Z,49.92
2018-03-26T23:18:02.149Z,51.67
2018-03-26T23:20:29.742Z,53.58
2018-03-26T23:22:57.270Z,54.17
2018-03-26T23:25:24.787Z,50.10
2018-03-26T23:27:52.338Z,52.15
2018-03-26T23:30:19.857Z,51.90
2018-03-26T23:32:47.365Z,52.78
2018-03-26T23:35:14.939Z,53.75
2018-03-26T23:37:42.465Z,55.65
2018-03-26T23:40:09.981Z,52.22
2018-03-26T23:42:37.678Z,50.10
2018-03-26T23:45:05.199Z,53.33
2018-03-26T23:47:32.713Z,52.50
2018-03-26T23:50:00.433Z,54.65
2018-03-26T23:52:28.018Z,54.75
2018-03-26T23:54:55.574Z,51.30
2018-03-26T23:57:23.125Z,52.05
2018-03-26T23:59:50.654Z,53.35
